sensor_id;sensor_type;location;lat;lon;timestamp;pressure;altitude;pressure_sealevel;temperature;humidity
21900;BME280;11114;50.658;12.704;2023-05-29T00:01:41;96294.84;;;13.26;51.26
21900;BME280;11114;50.658;12.704;2023-05-29T00:04:29;96295.09;;;13.09;51.36
21900;BME280;11114;50.658;12.704;2023-05-29T00:07:16;96291.72;;;12.92;52.17
21900;BME280;11114;50.658;12.704;2023-05-29T00:10:04;96296.13;;;13.00;52.02
21900;BME280;11114;50.658;12.704;2023-05-29T00:12:51;96301.97;;;13.10;51.62
21900;BME280;11114;50.658;12.704;2023-05-29T00:15:39;96299.84;;;13.13;51.64
21900;BME280;11114;50.658;12.704;2023-05-29T00:18:27;96299.88;;;13.05;51.66
21900;BME280;11114;50.658;12.704;2023-05-29T00:21:14;96303.72;;;13.17;51.54
21900;BME280;11114;50.658;12.704;2023-05-29T00:24:03;96298.63;;;13.23;51.46
21900;BME280;11114;50.658;12.704;2023-05-29T00:26:50;96305.53;;;13.16;51.63
21900;BME280;11114;50.658;12.704;2023-05-29T00:29:38;96300.00;;;13.12;51.91
21900;BME280;11114;50.658;12.704;2023-05-29T00:32:25;96301.63;;;13.13;52.04
21900;BME280;11114;50.658;12.704;2023-05-29T00:35:12;96300.31;;;13.16;51.78
21900;BME280;11114;50.658;12.704;2023-05-29T00:37:58;96299.88;;;13.05;51.92
21900;BME280;11114;50.658;12.704;2023-05-29T00:40:45;96306.16;;;12.72;52.74
21900;BME280;11114;50.658;12.704;2023-05-29T00:43:31;96305.03;;;12.51;53.20
21900;BME280;11114;50.658;12.704;2023-05-29T00:46:19;96302.44;;;12.27;53.77
21900;BME280;11114;50.658;12.704;2023-05-29T00:49:06;96296.06;;;12.29;54.12
21900;BME280;11114;50.658;12.704;2023-05-29T00:51:54;96303.91;;;12.14;54.27
21900;BME280;11114;50.658;12.704;2023-05-29T00:54:43;96307.19;;;12.16;54.16
21900;BME280;11114;50.658;12.704;2023-05-29T00:57:33;96300.81;;;12.26;53.95
21900;BME280;11114;50.658;12.704;2023-05-29T01:00:22;96307.53;;;12.36;53.53
21900;BME280;11114;50.658;12.704;2023-05-29T01:03:12;96305.22;;;12.41;53.54
21900;BME280;11114;50.658;12.704;2023-05-29T01:06:01;96298.03;;;12.43;53.43
21900;BME280;11114;50.658;12.704;2023-05-29T01:08:49;96291.31;;;12.49;53.44
21900;BME280;11114;50.658;12.704;2023-05-29T01:11:45;96298.19;;;12.50;53.69
21900;BME280;11114;50.658;12.704;2023-05-29T01:20:59;96284.09;;;12.59;53.27
21900;BME280;11114;50.658;12.704;2023-05-29T01:26:58;96284.91;;;12.59;53.46
21900;BME280;11114;50.658;12.704;2023-05-29T01:29:49;96285.56;;;12.61;53.12
21900;BME280;11114;50.658;12.704;2023-05-29T01:32:40;96286.22;;;12.63;53.17
21900;BME280;11114;50.658;12.704;2023-05-29T01:35:27;96293.38;;;12.69;52.88
21900;BME280;11114;50.658;12.704;2023-05-29T01:38:14;96285.84;;;12.74;52.83
21900;BME280;11114;50.658;12.704;2023-05-29T01:41:03;96282.38;;;12.82;52.86
21900;BME280;11114;50.658;12.704;2023-05-29T01:43:51;96288.44;;;12.90;52.86
21900;BME280;11114;50.658;12.704;2023-05-29T01:46:41;96288.56;;;12.97;52.87
21900;BME280;11114;50.658;12.704;2023-05-29T01:49:28;96288.06;;;13.01;52.88
21900;BME280;11114;50.658;12.704;2023-05-29T01:52:15;96286.91;;;13.04;52.45
21900;BME280;11114;50.658;12.704;2023-05-29T01:55:03;96278.78;;;12.91;52.49
21900;BME280;11114;50.658;12.704;2023-05-29T01:57:51;96287.63;;;12.82;52.77
21900;BME280;11114;50.658;12.704;2023-05-29T02:00:38;96282.88;;;12.77;52.78
21900;BME280;11114;50.658;12.704;2023-05-29T02:03:27;96288.94;;;12.70;52.85
21900;BME280;11114;50.658;12.704;2023-05-29T02:06:18;96292.94;;;12.58;53.02
21900;BME280;11114;50.658;12.704;2023-05-29T02:09:06;96288.81;;;12.55;53.23
21900;BME280;11114;50.658;12.704;2023-05-29T02:11:54;96290.97;;;12.52;53.40
21900;BME280;11114;50.658;12.704;2023-05-29T02:14:41;96288.22;;;12.45;53.56
21900;BME280;11114;50.658;12.704;2023-05-29T02:17:29;96291.47;;;12.39;53.64
21900;BME280;11114;50.658;12.704;2023-05-29T02:20:19;96284.13;;;12.35;53.58
21900;BME280;11114;50.658;12.704;2023-05-29T02:23:10;96278.56;;;12.38;53.70
21900;BME280;11114;50.658;12.704;2023-05-29T02:25:58;96282.63;;;12.40;53.57
21900;BME280;11114;50.658;12.704;2023-05-29T02:28:47;96287.88;;;12.40;53.69
21900;BME280;11114;50.658;12.704;2023-05-29T02:31:34;96293.94;;;12.49;53.80
21900;BME280;11114;50.658;12.704;2023-05-29T02:34:23;96291.13;;;12.58;53.65
21900;BME280;11114;50.658;12.704;2023-05-29T02:37:13;96292.94;;;12.58;53.71
21900;BME280;11114;50.658;12.704;2023-05-29T02:40:01;96286.53;;;12.60;53.50
21900;BME280;11114;50.658;12.704;2023-05-29T02:42:49;96290.44;;;12.64;53.40
21900;BME280;11114;50.658;12.704;2023-05-29T02:45:37;96292.91;;;12.66;53.42
21900;BME280;11114;50.658;12.704;2023-05-29T02:48:25;96290.13;;;12.67;53.24
21900;BME280;11114;50.658;12.704;2023-05-29T02:51:12;96288.16;;;12.69;53.32
21900;BME280;11114;50.658;12.704;2023-05-29T02:54:00;96290.59;;;12.71;53.10
21900;BME280;11114;50.658;12.704;2023-05-29T02:56:47;96294.69;;;12.65;53.13
21900;BME280;11114;50.658;12.704;2023-05-29T02:59:34;96292.09;;;12.57;53.20
21900;BME280;11114;50.658;12.704;2023-05-29T03:02:22;96286.38;;;12.54;53.33
21900;BME280;11114;50.658;12.704;2023-05-29T03:05:09;96287.84;;;12.56;53.43
21900;BME280;11114;50.658;12.704;2023-05-29T03:07:57;96295.19;;;12.61;53.51
21900;BME280;11114;50.658;12.704;2023-05-29T03:10:44;96283.25;;;12.66;53.50
21900;BME280;11114;50.658;12.704;2023-05-29T03:13:33;96290.78;;;12.61;53.27
21900;BME280;11114;50.658;12.704;2023-05-29T03:16:24;96287.53;;;12.51;54.06
21900;BME280;11114;50.658;12.704;2023-05-29T03:19:12;96290.81;;;12.45;53.46
21900;BME280;11114;50.658;12.704;2023-05-29T03:21:59;96293.09;;;12.40;53.87
21900;BME280;11114;50.658;12.704;2023-05-29T03:24:48;96301.47;;;12.36;53.76
21900;BME280;11114;50.658;12.704;2023-05-29T03:27:35;96303.59;;;12.25;53.91
21900;BME280;11114;50.658;12.704;2023-05-29T03:30:29;96304.59;;;12.24;54.18
21900;BME280;11114;50.658;12.704;2023-05-29T03:33:17;96310.31;;;12.11;54.28
21900;BME280;11114;50.658;12.704;2023-05-29T03:36:19;96313.56;;;11.89;54.85
21900;BME280;11114;50.658;12.704;2023-05-29T03:39:07;96311.78;;;11.98;54.98
21900;BME280;11114;50.658;12.704;2023-05-29T03:41:55;96311.28;;;12.10;54.68
21900;BME280;11114;50.658;12.704;2023-05-29T03:44:43;96307.53;;;12.13;54.93
21900;BME280;11114;50.658;12.704;2023-05-29T03:47:31;96310.97;;;12.13;54.85
21900;BME280;11114;50.658;12.704;2023-05-29T03:50:20;96317.97;;;12.21;54.87
21900;BME280;11114;50.658;12.704;2023-05-29T03:53:08;96317.97;;;12.28;54.80
21900;BME280;11114;50.658;12.704;2023-05-29T03:55:56;96321.91;;;12.32;54.93
21900;BME280;11114;50.658;12.704;2023-05-29T03:58:44;96318.97;;;12.35;54.78
21900;BME280;11114;50.658;12.704;2023-05-29T04:01:33;96318.00;;;12.36;54.80
21900;BME280;11114;50.658;12.704;2023-05-29T04:04:29;96323.06;;;12.38;54.96
21900;BME280;11114;50.658;12.704;2023-05-29T04:07:17;96323.72;;;12.40;55.01
21900;BME280;11114;50.658;12.704;2023-05-29T04:10:07;96330.25;;;12.44;55.03
21900;BME280;11114;50.658;12.704;2023-05-29T04:12:54;96343.81;;;12.47;55.01
21900;BME280;11114;50.658;12.704;2023-05-29T04:15:42;96338.09;;;12.52;55.08
21900;BME280;11114;50.658;12.704;2023-05-29T04:18:29;96346.78;;;12.52;55.15
21900;BME280;11114;50.658;12.704;2023-05-29T04:21:16;96351.66;;;12.55;55.16
21900;BME280;11114;50.658;12.704;2023-05-29T04:24:03;96355.63;;;12.43;55.78
21900;BME280;11114;50.658;12.704;2023-05-29T04:26:50;96349.38;;;12.21;56.67
21900;BME280;11114;50.658;12.704;2023-05-29T04:29:41;96355.47;;;12.21;57.22
21900;BME280;11114;50.658;12.704;2023-05-29T04:32:28;96355.94;;;12.32;56.72
21900;BME280;11114;50.658;12.704;2023-05-29T04:35:16;96357.91;;;12.46;56.57
21900;BME280;11114;50.658;12.704;2023-05-29T04:38:11;96364.94;;;12.62;56.36
21900;BME280;11114;50.658;12.704;2023-05-29T04:40:59;96363.13;;;12.70;56.27
21900;BME280;11114;50.658;12.704;2023-05-29T04:43:47;96369.34;;;12.77;56.22
21900;BME280;11114;50.658;12.704;2023-05-29T04:46:38;96364.25;;;12.84;56.25
21900;BME280;11114;50.658;12.704;2023-05-29T04:49:28;96370.13;;;12.86;57.13
21900;BME280;11114;50.658;12.704;2023-05-29T04:52:18;96377.50;;;12.90;56.35
21900;BME280;11114;50.658;12.704;2023-05-29T04:55:08;96374.41;;;12.95;56.51
21900;BME280;11114;50.658;12.704;2023-05-29T04:57:55;96378.00;;;13.02;56.63
21900;BME280;11114;50.658;12.704;2023-05-29T05:00:43;96372.75;;;13.10;56.79
21900;BME280;11114;50.658;12.704;2023-05-29T05:03:30;96363.41;;;13.15;56.49
21900;BME280;11114;50.658;12.704;2023-05-29T05:06:17;96379.25;;;13.21;56.83
21900;BME280;11114;50.658;12.704;2023-05-29T05:09:04;96376.59;;;13.29;56.68
21900;BME280;11114;50.658;12.704;2023-05-29T05:11:50;96376.09;;;13.34;57.25
21900;BME280;11114;50.658;12.704;2023-05-29T05:14:38;96376.88;;;13.42;57.20
21900;BME280;11114;50.658;12.704;2023-05-29T05:17:27;96377.50;;;13.52;57.24
21900;BME280;11114;50.658;12.704;2023-05-29T05:20:14;96368.44;;;13.63;56.99
21900;BME280;11114;50.658;12.704;2023-05-29T05:23:06;96372.50;;;13.73;56.77
21900;BME280;11114;50.658;12.704;2023-05-29T05:25:54;96368.81;;;13.82;56.58
21900;BME280;11114;50.658;12.704;2023-05-29T05:28:42;96369.78;;;13.89;56.07
21900;BME280;11114;50.658;12.704;2023-05-29T05:31:31;96374.13;;;13.96;55.84
21900;BME280;11114;50.658;12.704;2023-05-29T05:34:19;96374.91;;;14.05;55.65
21900;BME280;11114;50.658;12.704;2023-05-29T05:37:05;96384.59;;;14.12;55.69
21900;BME280;11114;50.658;12.704;2023-05-29T05:39:52;96385.53;;;14.19;55.31
21900;BME280;11114;50.658;12.704;2023-05-29T05:42:40;96386.47;;;14.26;55.16
21900;BME280;11114;50.658;12.704;2023-05-29T05:45:29;96382.78;;;14.35;54.96
21900;BME280;11114;50.658;12.704;2023-05-29T05:48:18;96396.50;;;14.45;55.00
21900;BME280;11114;50.658;12.704;2023-05-29T05:51:06;96402.97;;;14.57;54.87
21900;BME280;11114;50.658;12.704;2023-05-29T05:53:54;96405.81;;;14.70;55.26
21900;BME280;11114;50.658;12.704;2023-05-29T05:56:41;96416.25;;;14.78;55.13
21900;BME280;11114;50.658;12.704;2023-05-29T05:59:31;96409.59;;;14.90;54.98
21900;BME280;11114;50.658;12.704;2023-05-29T06:02:24;96412.16;;;14.98;54.84
21900;BME280;11114;50.658;12.704;2023-05-29T06:05:11;96408.44;;;15.07;54.96
21900;BME280;11114;50.658;12.704;2023-05-29T06:08:00;96398.19;;;15.12;54.95
21900;BME280;11114;50.658;12.704;2023-05-29T06:10:48;96405.13;;;15.27;54.86
21900;BME280;11114;50.658;12.704;2023-05-29T06:13:35;96406.13;;;15.55;54.31
21900;BME280;11114;50.658;12.704;2023-05-29T06:16:27;96406.19;;;15.90;54.17
21900;BME280;11114;50.658;12.704;2023-05-29T06:19:15;96409.00;;;16.24;53.61
21900;BME280;11114;50.658;12.704;2023-05-29T06:22:14;96403.53;;;16.61;52.85
21900;BME280;11114;50.658;12.704;2023-05-29T06:25:02;96409.47;;;16.90;52.31
21900;BME280;11114;50.658;12.704;2023-05-29T06:27:53;96412.31;;;17.16;52.69
21900;BME280;11114;50.658;12.704;2023-05-29T06:30:45;96401.31;;;17.67;51.98
21900;BME280;11114;50.658;12.704;2023-05-29T06:33:36;96408.13;;;17.89;50.06
21900;BME280;11114;50.658;12.704;2023-05-29T06:36:25;96408.03;;;18.16;50.38
21900;BME280;11114;50.658;12.704;2023-05-29T06:39:14;96417.53;;;18.64;49.42
21900;BME280;11114;50.658;12.704;2023-05-29T06:42:02;96409.25;;;19.12;48.95
21900;BME280;11114;50.658;12.704;2023-05-29T06:44:53;96411.47;;;19.28;47.22
21900;BME280;11114;50.658;12.704;2023-05-29T06:47:40;96415.09;;;19.60;47.50
21900;BME280;11114;50.658;12.704;2023-05-29T06:50:27;96413.75;;;20.07;46.56
21900;BME280;11114;50.658;12.704;2023-05-29T06:53:17;96413.56;;;20.46;45.89
21900;BME280;11114;50.658;12.704;2023-05-29T06:56:07;96409.66;;;20.86;45.39
21900;BME280;11114;50.658;12.704;2023-05-29T06:58:53;96416.50;;;21.00;44.50
21900;BME280;11114;50.658;12.704;2023-05-29T07:01:40;96423.84;;;21.04;44.45
21900;BME280;11114;50.658;12.704;2023-05-29T07:04:27;96424.16;;;21.14;44.53
21900;BME280;11114;50.658;12.704;2023-05-29T07:07:15;96417.75;;;21.46;44.16
21900;BME280;11114;50.658;12.704;2023-05-29T07:10:01;96417.81;;;21.64;43.78
21900;BME280;11114;50.658;12.704;2023-05-29T07:12:47;96417.22;;;21.80;42.70
21900;BME280;11114;50.658;12.704;2023-05-29T07:15:34;96421.66;;;22.04;43.07
21900;BME280;11114;50.658;12.704;2023-05-29T07:18:20;96421.34;;;22.30;42.19
21900;BME280;11114;50.658;12.704;2023-05-29T07:21:06;96417.56;;;22.55;42.24
21900;BME280;11114;50.658;12.704;2023-05-29T07:23:53;96417.56;;;22.96;41.32
21900;BME280;11114;50.658;12.704;2023-05-29T07:26:39;96422.06;;;23.24;40.74
21900;BME280;11114;50.658;12.704;2023-05-29T07:29:25;96423.69;;;23.48;40.74
21900;BME280;11114;50.658;12.704;2023-05-29T07:32:12;96428.50;;;23.81;40.28
21900;BME280;11114;50.658;12.704;2023-05-29T07:34:59;96424.97;;;24.14;39.87
21900;BME280;11114;50.658;12.704;2023-05-29T07:37:46;96427.13;;;24.29;39.39
21900;BME280;11114;50.658;12.704;2023-05-29T07:40:34;96416.91;;;24.49;38.91
21900;BME280;11114;50.658;12.704;2023-05-29T07:43:28;96423.88;;;24.66;38.76
21900;BME280;11114;50.658;12.704;2023-05-29T07:46:22;96439.84;;;25.05;37.88
21900;BME280;11114;50.658;12.704;2023-05-29T07:49:20;96435.66;;;25.09;36.76
21900;BME280;11114;50.658;12.704;2023-05-29T07:52:08;96442.66;;;25.10;37.42
21900;BME280;11114;50.658;12.704;2023-05-29T07:54:55;96444.78;;;25.25;36.81
21900;BME280;11114;50.658;12.704;2023-05-29T07:57:43;96443.53;;;25.32;35.50
21900;BME280;11114;50.658;12.704;2023-05-29T08:00:29;96439.41;;;25.41;36.03
21900;BME280;11114;50.658;12.704;2023-05-29T08:03:19;96443.13;;;25.89;36.18
21900;BME280;11114;50.658;12.704;2023-05-29T08:06:24;96439.53;;;26.38;35.11
21900;BME280;11114;50.658;12.704;2023-05-29T08:09:14;96441.75;;;26.41;33.71
21900;BME280;11114;50.658;12.704;2023-05-29T08:12:01;96437.13;;;26.58;34.04
21900;BME280;11114;50.658;12.704;2023-05-29T08:14:48;96445.84;;;26.70;34.15
21900;BME280;11114;50.658;12.704;2023-05-29T08:17:35;96440.84;;;26.78;34.76
21900;BME280;11114;50.658;12.704;2023-05-29T08:20:22;96440.47;;;27.18;33.81
21900;BME280;11114;50.658;12.704;2023-05-29T08:23:11;96441.41;;;27.02;32.48
21900;BME280;11114;50.658;12.704;2023-05-29T08:25:57;96441.94;;;27.30;33.12
21900;BME280;11114;50.658;12.704;2023-05-29T08:28:42;96434.50;;;27.73;33.04
21900;BME280;11114;50.658;12.704;2023-05-29T08:31:30;96447.41;;;27.76;32.06
21900;BME280;11114;50.658;12.704;2023-05-29T08:34:16;96450.75;;;27.88;32.59
21900;BME280;11114;50.658;12.704;2023-05-29T08:37:03;96449.19;;;27.97;31.17
21900;BME280;11114;50.658;12.704;2023-05-29T08:39:52;96452.72;;;28.03;31.28
21900;BME280;11114;50.658;12.704;2023-05-29T08:42:55;96440.38;;;28.07;29.90
21900;BME280;11114;50.658;12.704;2023-05-29T08:45:44;96443.91;;;28.17;31.21
21900;BME280;11114;50.658;12.704;2023-05-29T08:48:31;96439.78;;;28.41;32.15
21900;BME280;11114;50.658;12.704;2023-05-29T08:51:20;96442.47;;;28.46;31.42
21900;BME280;11114;50.658;12.704;2023-05-29T08:54:07;96444.16;;;28.57;30.70
21900;BME280;11114;50.658;12.704;2023-05-29T08:56:53;96442.25;;;28.52;30.01
21900;BME280;11114;50.658;12.704;2023-05-29T08:59:44;96441.19;;;28.53;31.40
21900;BME280;11114;50.658;12.704;2023-05-29T09:02:36;96437.38;;;28.44;30.89
21900;BME280;11114;50.658;12.704;2023-05-29T09:05:22;96437.56;;;28.28;30.12
21900;BME280;11114;50.658;12.704;2023-05-29T09:08:10;96434.41;;;28.41;30.82
21900;BME280;11114;50.658;12.704;2023-05-29T09:11:01;96444.34;;;28.40;31.17
21900;BME280;11114;50.658;12.704;2023-05-29T09:13:48;96444.44;;;28.60;31.71
21900;BME280;11114;50.658;12.704;2023-05-29T09:16:41;96444.75;;;28.74;29.53
21900;BME280;11114;50.658;12.704;2023-05-29T09:19:30;96450.31;;;28.47;29.91
21900;BME280;11114;50.658;12.704;2023-05-29T09:22:16;96448.91;;;28.40;29.75
21900;BME280;11114;50.658;12.704;2023-05-29T09:25:02;96456.53;;;28.58;29.98
21900;BME280;11114;50.658;12.704;2023-05-29T09:27:59;96453.59;;;28.64;29.60
21900;BME280;11114;50.658;12.704;2023-05-29T09:30:46;96456.00;;;28.66;30.17
21900;BME280;11114;50.658;12.704;2023-05-29T09:33:33;96451.81;;;28.90;29.51
21900;BME280;11114;50.658;12.704;2023-05-29T09:36:21;96457.22;;;29.05;29.83
21900;BME280;11114;50.658;12.704;2023-05-29T09:39:08;96457.00;;;29.31;29.37
21900;BME280;11114;50.658;12.704;2023-05-29T09:42:04;96461.03;;;29.23;28.97
21900;BME280;11114;50.658;12.704;2023-05-29T09:44:52;96459.38;;;29.03;28.63
21900;BME280;11114;50.658;12.704;2023-05-29T09:47:40;96462.59;;;28.95;29.54
21900;BME280;11114;50.658;12.704;2023-05-29T09:50:27;96458.84;;;29.06;28.57
21900;BME280;11114;50.658;12.704;2023-05-29T09:53:22;96457.00;;;29.26;28.41
21900;BME280;11114;50.658;12.704;2023-05-29T09:56:11;96456.78;;;29.37;29.95
21900;BME280;11114;50.658;12.704;2023-05-29T09:58:59;96454.09;;;29.62;28.74
21900;BME280;11114;50.658;12.704;2023-05-29T10:01:48;96458.41;;;29.48;28.54
21900;BME280;11114;50.658;12.704;2023-05-29T10:04:35;96462.41;;;29.81;28.93
21900;BME280;11114;50.658;12.704;2023-05-29T10:07:27;96456.78;;;29.92;28.47
21900;BME280;11114;50.658;12.704;2023-05-29T10:10:17;96454.59;;;30.14;28.46
21900;BME280;11114;50.658;12.704;2023-05-29T10:13:06;96450.88;;;29.95;27.66
21900;BME280;11114;50.658;12.704;2023-05-29T10:15:55;96462.13;;;30.27;28.39
21900;BME280;11114;50.658;12.704;2023-05-29T10:18:43;96452.38;;;30.41;28.02
21900;BME280;11114;50.658;12.704;2023-05-29T10:21:37;96460.47;;;30.31;28.03
21900;BME280;11114;50.658;12.704;2023-05-29T10:24:28;96458.53;;;30.61;28.36
21900;BME280;11114;50.658;12.704;2023-05-29T10:27:15;96448.19;;;30.78;27.99
21900;BME280;11114;50.658;12.704;2023-05-29T10:30:09;96453.13;;;30.61;26.21
21900;BME280;11114;50.658;12.704;2023-05-29T10:36:19;96455.41;;;30.19;26.57
21900;BME280;11114;50.658;12.704;2023-05-29T10:39:10;96460.00;;;30.09;28.53
21900;BME280;11114;50.658;12.704;2023-05-29T10:41:56;96453.59;;;30.78;28.74
21900;BME280;11114;50.658;12.704;2023-05-29T10:44:45;96447.50;;;31.11;26.99
21900;BME280;11114;50.658;12.704;2023-05-29T10:47:31;96452.22;;;30.81;27.03
21900;BME280;11114;50.658;12.704;2023-05-29T10:50:38;96449.06;;;30.69;26.74
21900;BME280;11114;50.658;12.704;2023-05-29T10:53:26;96439.28;;;30.83;27.56
21900;BME280;11114;50.658;12.704;2023-05-29T10:56:23;96448.06;;;30.45;26.92
21900;BME280;11114;50.658;12.704;2023-05-29T10:59:10;96434.66;;;30.10;27.44
21900;BME280;11114;50.658;12.704;2023-05-29T11:01:58;96436.28;;;30.16;27.39
21900;BME280;11114;50.658;12.704;2023-05-29T11:05:03;96442.19;;;30.23;27.00
21900;BME280;11114;50.658;12.704;2023-05-29T11:07:51;96438.16;;;30.15;27.83
21900;BME280;11114;50.658;12.704;2023-05-29T11:13:33;96439.81;;;29.87;27.21
21900;BME280;11114;50.658;12.704;2023-05-29T11:19:13;96434.44;;;29.67;27.48
21900;BME280;11114;50.658;12.704;2023-05-29T11:22:09;96441.44;;;29.88;27.43
21900;BME280;11114;50.658;12.704;2023-05-29T11:25:02;96439.00;;;30.06;28.74
21900;BME280;11114;50.658;12.704;2023-05-29T11:27:49;96436.78;;;30.28;27.74
21900;BME280;11114;50.658;12.704;2023-05-29T11:30:47;96440.34;;;30.13;27.12
21900;BME280;11114;50.658;12.704;2023-05-29T11:33:37;96426.06;;;30.08;26.74
21900;BME280;11114;50.658;12.704;2023-05-29T11:36:26;96438.47;;;30.09;26.71
21900;BME280;11114;50.658;12.704;2023-05-29T11:39:13;96426.59;;;29.85;26.77
21900;BME280;11114;50.658;12.704;2023-05-29T11:42:03;96425.56;;;29.71;27.19
21900;BME280;11114;50.658;12.704;2023-05-29T11:44:51;96426.09;;;29.43;27.00
21900;BME280;11114;50.658;12.704;2023-05-29T11:48:13;96429.84;;;29.67;28.32
21900;BME280;11114;50.658;12.704;2023-05-29T11:51:03;96428.53;;;29.55;27.33
21900;BME280;11114;50.658;12.704;2023-05-29T11:53:52;96430.94;;;29.81;28.09
21900;BME280;11114;50.658;12.704;2023-05-29T11:56:43;96425.81;;;30.05;27.42
21900;BME280;11114;50.658;12.704;2023-05-29T11:59:29;96426.88;;;30.13;26.87
21900;BME280;11114;50.658;12.704;2023-05-29T12:02:17;96427.41;;;30.10;27.90
21900;BME280;11114;50.658;12.704;2023-05-29T12:05:05;96420.94;;;30.21;27.46
21900;BME280;11114;50.658;12.704;2023-05-29T12:07:54;96421.50;;;29.99;27.71
21900;BME280;11114;50.658;12.704;2023-05-29T12:10:50;96426.34;;;29.82;26.68
21900;BME280;11114;50.658;12.704;2023-05-29T12:13:37;96417.47;;;29.76;27.10
21900;BME280;11114;50.658;12.704;2023-05-29T12:16:24;96418.84;;;29.69;28.69
21900;BME280;11114;50.658;12.704;2023-05-29T12:19:11;96410.50;;;29.55;28.27
21900;BME280;11114;50.658;12.704;2023-05-29T12:21:57;96421.00;;;29.52;28.10
21900;BME280;11114;50.658;12.704;2023-05-29T12:24:44;96420.47;;;29.50;28.94
21900;BME280;11114;50.658;12.704;2023-05-29T12:27:31;96415.00;;;28.90;27.24
21900;BME280;11114;50.658;12.704;2023-05-29T12:33:29;96433.41;;;28.57;28.33
21900;BME280;11114;50.658;12.704;2023-05-29T12:36:15;96425.84;;;28.54;28.37
21900;BME280;11114;50.658;12.704;2023-05-29T12:39:06;96422.59;;;28.42;27.94
21900;BME280;11114;50.658;12.704;2023-05-29T12:41:55;96416.97;;;28.43;29.08
21900;BME280;11114;50.658;12.704;2023-05-29T12:44:41;96416.66;;;28.35;28.93
21900;BME280;11114;50.658;12.704;2023-05-29T12:47:28;96422.44;;;28.17;29.51
21900;BME280;11114;50.658;12.704;2023-05-29T12:50:22;96420.66;;;27.86;28.81
21900;BME280;11114;50.658;12.704;2023-05-29T12:53:11;96416.09;;;27.55;28.65
21900;BME280;11114;50.658;12.704;2023-05-29T12:55:57;96423.88;;;26.94;29.49
21900;BME280;11114;50.658;12.704;2023-05-29T12:58:45;96423.75;;;26.84;29.82
21900;BME280;11114;50.658;12.704;2023-05-29T13:01:31;96418.94;;;26.60;29.50
21900;BME280;11114;50.658;12.704;2023-05-29T13:04:20;96415.03;;;26.46;30.72
21900;BME280;11114;50.658;12.704;2023-05-29T13:07:08;96414.72;;;26.43;30.31
21900;BME280;11114;50.658;12.704;2023-05-29T13:09:55;96417.81;;;26.13;31.05
21900;BME280;11114;50.658;12.704;2023-05-29T13:12:42;96411.72;;;26.18;31.45
21900;BME280;11114;50.658;12.704;2023-05-29T13:15:29;96411.50;;;26.24;30.95
21900;BME280;11114;50.658;12.704;2023-05-29T13:18:16;96414.81;;;26.31;32.73
21900;BME280;11114;50.658;12.704;2023-05-29T13:21:02;96408.59;;;26.26;31.03
21900;BME280;11114;50.658;12.704;2023-05-29T13:23:49;96406.66;;;26.21;31.45
21900;BME280;11114;50.658;12.704;2023-05-29T13:26:36;96410.66;;;26.19;31.76
21900;BME280;11114;50.658;12.704;2023-05-29T13:29:22;96405.91;;;26.04;31.22
21900;BME280;11114;50.658;12.704;2023-05-29T13:32:09;96409.56;;;25.98;31.82
21900;BME280;11114;50.658;12.704;2023-05-29T13:34:56;96406.50;;;25.90;31.52
21900;BME280;11114;50.658;12.704;2023-05-29T13:37:43;96392.25;;;25.84;31.85
21900;BME280;11114;50.658;12.704;2023-05-29T13:40:30;96406.50;;;25.74;32.41
21900;BME280;11114;50.658;12.704;2023-05-29T13:43:18;96410.16;;;25.68;31.71
21900;BME280;11114;50.658;12.704;2023-05-29T13:46:10;96408.88;;;25.70;32.29
21900;BME280;11114;50.658;12.704;2023-05-29T13:48:57;96404.19;;;25.61;32.43
21900;BME280;11114;50.658;12.704;2023-05-29T13:51:43;96395.91;;;25.46;31.74
21900;BME280;11114;50.658;12.704;2023-05-29T13:54:32;96397.97;;;25.22;31.41
21900;BME280;11114;50.658;12.704;2023-05-29T13:57:22;96395.72;;;25.03;32.20
21900;BME280;11114;50.658;12.704;2023-05-29T14:00:09;96398.31;;;24.98;32.37
21900;BME280;11114;50.658;12.704;2023-05-29T14:02:56;96397.16;;;24.94;32.66
21900;BME280;11114;50.658;12.704;2023-05-29T14:05:44;96401.47;;;24.79;32.09
21900;BME280;11114;50.658;12.704;2023-05-29T14:08:31;96396.91;;;24.79;33.31
21900;BME280;11114;50.658;12.704;2023-05-29T14:11:18;96389.41;;;24.92;34.14
21900;BME280;11114;50.658;12.704;2023-05-29T14:14:04;96396.56;;;25.03;32.23
21900;BME280;11114;50.658;12.704;2023-05-29T14:16:52;96399.22;;;25.03;32.45
21900;BME280;11114;50.658;12.704;2023-05-29T14:19:39;96398.91;;;25.00;31.83
21900;BME280;11114;50.658;12.704;2023-05-29T14:22:25;96394.28;;;24.95;31.84
21900;BME280;11114;50.658;12.704;2023-05-29T14:25:12;96401.38;;;24.90;32.14
21900;BME280;11114;50.658;12.704;2023-05-29T14:27:59;96399.91;;;24.83;31.57
21900;BME280;11114;50.658;12.704;2023-05-29T14:30:45;96405.78;;;24.68;32.18
21900;BME280;11114;50.658;12.704;2023-05-29T14:33:32;96398.59;;;24.69;32.71
21900;BME280;11114;50.658;12.704;2023-05-29T14:36:19;96395.47;;;24.60;32.76
21900;BME280;11114;50.658;12.704;2023-05-29T14:39:06;96401.88;;;24.59;33.39
21900;BME280;11114;50.658;12.704;2023-05-29T14:41:52;96392.56;;;24.62;33.22
21900;BME280;11114;50.658;12.704;2023-05-29T14:44:39;96393.66;;;24.49;33.14
21900;BME280;11114;50.658;12.704;2023-05-29T14:47:25;96396.25;;;24.44;33.35
21900;BME280;11114;50.658;12.704;2023-05-29T14:50:11;96386.38;;;24.33;32.87
21900;BME280;11114;50.658;12.704;2023-05-29T14:52:58;96396.53;;;24.20;32.91
21900;BME280;11114;50.658;12.704;2023-05-29T14:55:45;96391.69;;;24.06;33.64
21900;BME280;11114;50.658;12.704;2023-05-29T14:58:31;96391.13;;;24.04;33.37
21900;BME280;11114;50.658;12.704;2023-05-29T15:01:18;96392.16;;;24.14;33.63
21900;BME280;11114;50.658;12.704;2023-05-29T15:04:05;96393.97;;;24.13;33.97